createdAt,value
2019-05-17T00:01:22.817Z,25.75
2019-05-17T00:02:57.278Z,21.87
2019-05-17T00:04:32.266Z,20.62
2019-05-17T00:06:07.007Z,21.37
2019-05-17T00:07:42.319Z,20.97
2019-05-17T00:09:17.590Z,20.02
2019-05-17T00:10:52.697Z,18.55
2019-05-17T00:12:27.415Z,20.40
2019-05-17T00:14:02.944Z,18.87
2019-05-17T00:15:37.346Z,19.95
2019-05-17T00:17:12.397Z,21.55
2019-05-17T00:18:46.773Z,26.70
2019-05-17T00:20:21.975Z,26.33
2019-05-17T00:21:56.779Z,24.02
2019-05-17T00:23:31.818Z,25.92
2019-05-17T00:25:07.507Z,25.82
2019-05-17T00:26:42.638Z,22.90
2019-05-17T00:28:17.005Z,21.35
2019-05-17T00:29:51.908Z,24.98
2019-05-17T00:31:26.437Z,22.15
2019-05-17T00:33:01.422Z,18.67
2019-05-17T00:34:37.711Z,22.48
2019-05-17T00:36:12.887Z,21.77
2019-05-17T00:37:47.311Z,20.62
2019-05-17T00:39:23.087Z,22.07
2019-05-17T00:40:57.799Z,22.17
2019-05-17T00:42:32.744Z,21.33
2019-05-17T00:44:07.110Z,19.80
2019-05-17T00:45:42.034Z,19.12
2019-05-17T00:47:17.126Z,20.85
2019-05-17T00:48:52.406Z,18.50
2019-05-17T00:50:27.503Z,21.02
2019-05-17T00:52:03.194Z,19.30
2019-05-17T00:53:37.587Z,20.12
2019-05-17T00:55:13.086Z,21.60
2019-05-17T00:56:47.453Z,21.05
2019-05-17T00:58:22.422Z,19.93
2019-05-17T00:59:56.797Z,19.75
2019-05-17T01:01:31.742Z,20.60
2019-05-17T01:03:07.079Z,21.23
2019-05-17T01:04:42.374Z,22.52
2019-05-17T01:06:17.049Z,20.55
2019-05-17T01:07:52.052Z,20.20
2019-05-17T01:09:27.343Z,19.57
2019-05-17T01:11:02.442Z,19.12
2019-05-17T01:12:37.135Z,17.82
2019-05-17T01:14:12.058Z,20.62
2019-05-17T01:15:47.409Z,20.15
2019-05-17T01:17:23.040Z,20.90
2019-05-17T01:18:57.450Z,19.57
2019-05-17T01:20:32.413Z,18.85
2019-05-17T01:22:07.494Z,21.93
2019-05-17T01:23:42.693Z,19.05
2019-05-17T01:25:17.359Z,23.02
2019-05-17T01:26:52.352Z,18.62
2019-05-17T01:28:27.046Z,19.20
2019-05-17T01:30:02.321Z,22.35
2019-05-17T01:31:37.355Z,21.77
2019-05-17T01:33:12.397Z,20.32
2019-05-17T01:34:47.020Z,19.37
2019-05-17T01:36:22.141Z,21.27
2019-05-17T01:37:56.625Z,20.25
2019-05-17T01:39:33.535Z,21.15
2019-05-17T01:41:08.181Z,19.10
2019-05-17T01:42:43.634Z,22.50
2019-05-17T01:44:18.027Z,22.07
2019-05-17T01:45:53.195Z,23.40
2019-05-17T01:47:27.606Z,26.20
2019-05-17T01:49:02.514Z,24.20
2019-05-17T01:50:37.607Z,24.55
2019-05-17T01:52:12.726Z,21.73
2019-05-17T01:53:47.454Z,28.60
2019-05-17T01:55:22.368Z,22.32
2019-05-17T01:56:56.989Z,24.37
2019-05-17T01:58:31.941Z,26.23
2019-05-17T02:00:07.133Z,22.15
2019-05-17T02:01:43.326Z,27.17
2019-05-17T02:03:17.726Z,27.67
2019-05-17T02:04:53.046Z,30.02
2019-05-17T02:06:27.431Z,26.48
2019-05-17T02:08:02.986Z,27.10
2019-05-17T02:09:41.332Z,25.05
2019-05-17T02:11:14.076Z,29.65
2019-05-17T02:12:49.254Z,23.30
2019-05-17T02:14:26.634Z,24.32
2019-05-17T02:16:00.384Z,23.83
2019-05-17T02:17:37.325Z,26.33
2019-05-17T02:19:11.421Z,26.48
2019-05-17T02:20:46.525Z,26.68
2019-05-17T02:22:21.210Z,23.93
2019-05-17T02:23:57.139Z,26.52
2019-05-17T02:25:31.674Z,21.07
2019-05-17T02:27:07.014Z,20.33
2019-05-17T02:28:41.542Z,21.00
2019-05-17T02:30:17.329Z,21.00
2019-05-17T02:31:52.570Z,21.15
2019-05-17T02:33:28.333Z,20.62
2019-05-17T02:35:03.524Z,18.87
2019-05-17T02:36:38.551Z,21.50
2019-05-17T02:38:13.339Z,24.33
2019-05-17T02:39:58.346Z,23.23
2019-05-17T02:41:24.882Z,27.80
2019-05-17T02:43:03.085Z,24.05
2019-05-17T02:44:36.293Z,20.62
2019-05-17T02:46:13.677Z,23.77
2019-05-17T02:47:47.660Z,24.15
2019-05-17T02:49:23.583Z,25.32
2019-05-17T02:50:58.214Z,23.65
2019-05-17T02:52:33.165Z,24.00
2019-05-17T02:54:07.661Z,24.97
2019-05-17T02:55:43.563Z,25.63
2019-05-17T02:57:18.547Z,25.62
2019-05-17T02:58:53.790Z,23.38
2019-05-17T03:00:28.172Z,24.82
2019-05-17T03:02:03.768Z,24.73
2019-05-17T03:03:38.560Z,22.00
2019-05-17T03:05:15.028Z,24.80
2019-05-17T03:06:52.972Z,23.90
2019-05-17T03:08:26.203Z,21.53
2019-05-17T03:10:13.625Z,20.90
2019-05-17T03:11:38.076Z,20.75
2019-05-17T03:13:17.051Z,24.07
2019-05-17T03:14:52.663Z,19.48
2019-05-17T03:16:25.851Z,21.25
2019-05-17T03:18:03.786Z,23.90
2019-05-17T03:19:36.956Z,22.70
2019-05-17T03:21:13.479Z,26.50
2019-05-17T03:22:48.193Z,26.37
2019-05-17T03:24:23.188Z,25.20
2019-05-17T03:25:57.928Z,25.70
2019-05-17T03:27:33.860Z,24.05
2019-05-17T03:29:08.340Z,22.70
2019-05-17T03:30:46.629Z,23.00
2019-05-17T03:32:25.874Z,25.17
2019-05-17T03:33:57.725Z,22.93
2019-05-17T03:35:37.868Z,23.40
2019-05-17T03:37:09.000Z,22.17
2019-05-17T03:38:43.722Z,22.93
2019-05-17T03:40:46.318Z,26.90
2019-05-17T03:41:55.472Z,24.27
2019-05-17T03:43:30.647Z,23.02
2019-05-17T03:45:05.590Z,21.48
2019-05-17T03:46:42.529Z,21.65
2019-05-17T03:48:17.447Z,25.75
2019-05-17T03:49:53.186Z,23.05
2019-05-17T03:51:28.064Z,21.50
2019-05-17T03:53:03.184Z,24.18
2019-05-17T03:54:37.834Z,25.33
2019-05-17T03:56:13.344Z,24.63
2019-05-17T03:57:47.938Z,26.33
2019-05-17T03:59:24.238Z,23.98
2019-05-17T04:00:58.892Z,27.73
2019-05-17T04:02:33.896Z,24.17
2019-05-17T04:04:08.363Z,25.08
2019-05-17T04:05:43.363Z,22.97
2019-05-17T04:07:17.751Z,25.43
2019-05-17T04:08:52.877Z,23.37
2019-05-17T04:10:27.726Z,20.20
2019-05-17T04:12:03.078Z,27.47
2019-05-17T04:13:37.536Z,24.93
2019-05-17T04:15:14.122Z,23.20
2019-05-17T04:16:48.669Z,27.03
2019-05-17T04:18:23.786Z,25.68
2019-05-17T04:19:58.236Z,27.37
2019-05-17T04:21:34.304Z,25.97
2019-05-17T04:23:08.901Z,25.53
2019-05-17T04:24:44.098Z,25.20
2019-05-17T04:26:18.614Z,24.75
2019-05-17T04:27:53.949Z,22.37
2019-05-17T04:29:28.342Z,21.67
2019-05-17T04:31:03.492Z,23.57
2019-05-17T04:32:37.941Z,25.93
2019-05-17T04:34:13.648Z,24.30
2019-05-17T04:35:48.231Z,24.77
2019-05-17T04:37:23.223Z,28.45
2019-05-17T04:38:57.918Z,28.37
2019-05-17T04:40:33.936Z,24.90
2019-05-17T04:42:09.095Z,21.10
2019-05-17T04:43:44.023Z,23.77
2019-05-17T04:45:18.571Z,23.87
2019-05-17T04:46:53.770Z,22.47
2019-05-17T04:48:28.254Z,22.77
2019-05-17T04:50:04.164Z,18.83
2019-05-17T04:51:38.865Z,18.47
2019-05-17T04:53:14.140Z,19.87
2019-05-17T04:54:48.655Z,19.60
2019-05-17T04:56:23.577Z,18.63
2019-05-17T04:57:58.249Z,16.97
2019-05-17T04:59:34.147Z,17.67
2019-05-17T05:01:08.744Z,19.37
2019-05-17T05:02:44.401Z,16.80
2019-05-17T05:04:18.967Z,17.17
2019-05-17T05:05:54.238Z,17.47
2019-05-17T05:07:29.028Z,16.97
2019-05-17T05:09:06.256Z,18.10
2019-05-17T05:10:42.693Z,20.60
2019-05-17T05:12:17.894Z,18.13
2019-05-17T05:13:53.097Z,17.37
2019-05-17T05:15:43.324Z,18.03
2019-05-17T05:17:17.287Z,19.53
2019-05-17T05:18:52.048Z,22.63
2019-05-17T05:20:27.448Z,23.03
2019-05-17T05:22:04.631Z,18.90
2019-05-17T05:23:38.718Z,21.27
2019-05-17T05:25:13.965Z,21.87
2019-05-17T05:26:49.141Z,21.20
2019-05-17T05:28:23.882Z,19.63
2019-05-17T05:29:59.692Z,20.23
2019-05-17T05:31:34.500Z,21.43
2019-05-17T05:33:12.551Z,36.73
2019-05-17T05:34:46.825Z,20.40
2019-05-17T05:36:22.426Z,22.20
2019-05-17T05:37:57.212Z,21.23
2019-05-17T05:39:32.202Z,18.97
2019-05-17T05:41:06.657Z,17.73
2019-05-17T05:42:42.534Z,17.53
2019-05-17T05:44:17.502Z,16.37
2019-05-17T05:45:53.680Z,16.70
2019-05-17T05:47:28.206Z,15.73
2019-05-17T05:49:03.211Z,15.33
2019-05-17T05:50:37.698Z,18.43
2019-05-17T05:52:12.955Z,14.20
2019-05-17T05:53:47.683Z,14.20
2019-05-17T05:55:23.525Z,14.30
2019-05-17T05:56:57.973Z,14.60
2019-05-17T05:58:32.901Z,13.10
2019-05-17T06:00:08.381Z,14.23
2019-05-17T06:01:43.317Z,13.77
2019-05-17T06:03:17.678Z,13.97
2019-05-17T06:04:52.646Z,14.57
2019-05-17T06:06:27.015Z,14.20
2019-05-17T06:08:02.879Z,14.47
2019-05-17T06:09:37.578Z,14.27
2019-05-17T06:11:12.551Z,14.20
2019-05-17T06:12:47.199Z,14.67
2019-05-17T06:14:22.119Z,14.40
2019-05-17T06:15:56.569Z,13.83
2019-05-17T06:17:31.849Z,13.73
2019-05-17T06:19:06.366Z,14.07
2019-05-17T06:20:41.741Z,15.77
2019-05-17T06:22:16.458Z,16.83
2019-05-17T06:23:51.684Z,18.47
2019-05-17T06:25:26.511Z,18.00
2019-05-17T06:27:02.016Z,15.30
2019-05-17T06:28:36.984Z,17.23
2019-05-17T06:30:12.950Z,18.00
2019-05-17T06:31:47.443Z,16.27
2019-05-17T06:33:30.368Z,16.57
2019-05-17T06:34:58.931Z,16.40
2019-05-17T06:36:33.939Z,15.97
2019-05-17T06:38:08.597Z,16.37
2019-05-17T06:39:43.598Z,18.07
2019-05-17T06:41:18.070Z,19.17
2019-05-17T06:42:53.090Z,17.70
2019-05-17T06:44:27.744Z,18.93
2019-05-17T06:46:02.745Z,20.70
2019-05-17T06:47:37.219Z,17.53
2019-05-17T06:49:12.163Z,17.10
2019-05-17T06:50:46.555Z,16.10
2019-05-17T06:52:22.558Z,18.83
2019-05-17T06:53:57.514Z,16.67
2019-05-17T06:55:32.502Z,17.47
2019-05-17T06:57:06.908Z,16.57
2019-05-17T06:58:42.199Z,18.47
2019-05-17T07:00:20.697Z,16.90
2019-05-17T07:01:53.607Z,16.37
2019-05-17T07:03:29.453Z,17.67
2019-05-17T07:05:06.767Z,17.00
2019-05-17T07:06:41.162Z,17.90
2019-05-17T07:08:16.107Z,17.53
2019-05-17T07:09:50.498Z,17.80
2019-05-17T07:11:25.422Z,17.37
2019-05-17T07:13:01.966Z,18.07
2019-05-17T07:14:36.551Z,18.27
2019-05-17T07:16:11.036Z,19.10
2019-05-17T07:17:45.957Z,17.77
2019-05-17T07:19:20.338Z,19.60
2019-05-17T07:20:55.270Z,19.23
2019-05-17T07:22:29.789Z,20.23
2019-05-17T07:24:04.769Z,20.97
2019-05-17T07:25:39.725Z,20.07
2019-05-17T07:27:15.252Z,21.57
2019-05-17T07:28:49.859Z,20.57
2019-05-17T07:30:24.941Z,19.70
2019-05-17T07:32:00.372Z,20.37
2019-05-17T07:33:35.427Z,19.00
2019-05-17T07:35:11.108Z,18.83
2019-05-17T07:36:46.269Z,19.90
2019-05-17T07:38:20.713Z,18.67
2019-05-17T07:40:01.160Z,20.07
2019-05-17T07:41:32.006Z,20.73
2019-05-17T07:43:13.646Z,19.43
2019-05-17T07:44:44.105Z,20.67
2019-05-17T07:46:20.642Z,22.83
2019-05-17T07:47:55.278Z,22.07
2019-05-17T07:49:30.957Z,20.50
2019-05-17T07:51:05.704Z,19.60
2019-05-17T07:52:40.953Z,19.03
2019-05-17T07:54:15.357Z,19.20
2019-05-17T07:55:50.722Z,18.90
2019-05-17T07:57:25.697Z,17.47
2019-05-17T07:59:00.686Z,20.83
2019-05-17T08:00:35.355Z,17.57
2019-05-17T08:02:10.747Z,18.37
2019-05-17T08:03:45.812Z,19.27
2019-05-17T08:05:21.397Z,17.63
2019-05-17T08:06:56.010Z,17.13
2019-05-17T08:08:31.489Z,15.40
2019-05-17T08:10:06.319Z,15.63
2019-05-17T08:11:41.347Z,16.93
2019-05-17T08:13:27.284Z,15.57
2019-05-17T08:14:52.702Z,15.13
2019-05-17T08:16:27.210Z,14.40
2019-05-17T08:18:02.153Z,14.20
2019-05-17T08:19:36.967Z,14.80
2019-05-17T08:21:11.890Z,13.80
2019-05-17T08:22:46.310Z,13.53
2019-05-17T08:24:21.500Z,13.77
2019-05-17T08:25:56.438Z,13.20
2019-05-17T08:27:31.978Z,12.77
2019-05-17T08:29:06.793Z,12.90
2019-05-17T08:30:42.755Z,12.23
2019-05-17T08:32:17.539Z,10.67
2019-05-17T08:33:52.516Z,10.50
2019-05-17T08:35:26.893Z,9.57
2019-05-17T08:37:02.197Z,10.47
2019-05-17T08:38:39.211Z,9.80
2019-05-17T08:40:15.353Z,10.57
2019-05-17T08:41:49.954Z,10.07
2019-05-17T08:43:38.393Z,10.87
2019-05-17T08:45:01.655Z,10.17
2019-05-17T08:46:39.396Z,9.87
2019-05-17T08:48:13.932Z,9.20
2019-05-17T08:49:49.766Z,9.73
2019-05-17T08:51:24.772Z,10.73
2019-05-17T08:53:00.642Z,9.63
2019-05-17T08:54:35.764Z,9.93
2019-05-17T08:56:11.314Z,8.37
2019-05-17T08:57:46.096Z,7.90
2019-05-17T08:59:21.642Z,10.30
2019-05-17T09:00:56.698Z,10.07
2019-05-17T09:02:31.642Z,9.20
2019-05-17T09:04:06.070Z,9.70
2019-05-17T09:05:41.820Z,9.37
2019-05-17T09:07:16.469Z,10.07
2019-05-17T09:08:51.390Z,9.27
2019-05-17T09:10:25.760Z,9.00
2019-05-17T09:12:00.669Z,8.97
2019-05-17T09:13:35.514Z,8.70
2019-05-17T09:15:11.517Z,8.63
2019-05-17T09:16:46.134Z,8.53
2019-05-17T09:18:21.084Z,8.27
2019-05-17T09:19:55.464Z,8.73
2019-05-17T09:21:31.289Z,8.13
2019-05-17T09:23:05.963Z,7.10
2019-05-17T09:24:41.248Z,7.40
2019-05-17T09:26:15.967Z,7.30
2019-05-17T09:27:51.256Z,7.10
2019-05-17T09:29:25.696Z,8.07
2019-05-17T09:31:00.951Z,8.20
2019-05-17T09:32:35.340Z,7.90
2019-05-17T09:34:10.246Z,7.60
2019-05-17T09:35:45.022Z,7.50
2019-05-17T09:37:22.537Z,8.10
2019-05-17T09:38:56.544Z,8.07
2019-05-17T09:40:31.734Z,7.27
2019-05-17T09:42:06.555Z,7.37
2019-05-17T09:43:41.863Z,6.90
2019-05-17T09:45:16.438Z,7.43
2019-05-17T09:46:51.374Z,8.00
2019-05-17T09:48:25.731Z,7.03
2019-05-17T09:50:01.851Z,7.27
2019-05-17T09:51:39.491Z,5.97
2019-05-17T09:53:14.560Z,7.00
2019-05-17T09:54:50.475Z,7.27
2019-05-17T09:56:26.034Z,8.10
2019-05-17T09:58:01.308Z,5.90
2019-05-17T09:59:36.718Z,5.73
2019-05-17T10:01:12.482Z,6.10
2019-05-17T10:02:50.535Z,6.37
2019-05-17T10:04:24.982Z,8.10
2019-05-17T10:06:00.374Z,6.60
2019-05-17T10:07:35.319Z,7.03
2019-05-17T10:09:10.694Z,7.57
2019-05-17T10:10:45.776Z,7.67
2019-05-17T10:12:21.207Z,6.67
2019-05-17T10:13:58.942Z,6.67
2019-05-17T10:15:33.349Z,6.40
2019-05-17T10:17:09.866Z,7.93
2019-05-17T10:18:45.362Z,7.80
2019-05-17T10:20:20.350Z,7.27
2019-05-17T10:21:55.715Z,6.77
2019-05-17T10:23:30.691Z,6.77
2019-05-17T10:25:06.371Z,7.50
2019-05-17T10:26:41.335Z,7.17
2019-05-17T10:28:17.064Z,6.60
2019-05-17T10:29:52.031Z,6.63
2019-05-17T10:31:27.578Z,8.13
2019-05-17T10:33:01.951Z,7.10
2019-05-17T10:34:37.170Z,6.90
2019-05-17T10:36:11.834Z,7.10
2019-05-17T10:37:46.827Z,6.77
2019-05-17T10:39:21.187Z,6.90
2019-05-17T10:40:56.114Z,7.27
2019-05-17T10:42:31.024Z,6.87
2019-05-17T10:44:06.022Z,7.77
2019-05-17T10:45:40.525Z,6.37
2019-05-17T10:47:15.615Z,8.37
2019-05-17T10:48:50.273Z,6.87
2019-05-17T10:50:25.211Z,8.13
2019-05-17T10:52:00.000Z,7.73
2019-05-17T10:53:35.302Z,7.00
2019-05-17T10:55:10.608Z,7.93
2019-05-17T10:56:46.069Z,6.50
2019-05-17T10:58:21.410Z,7.23
2019-05-17T10:59:56.390Z,6.47
2019-05-17T11:01:30.996Z,7.23
2019-05-17T11:03:06.075Z,8.43
2019-05-17T11:04:40.662Z,6.90
2019-05-17T11:06:15.672Z,7.23
2019-05-17T11:07:50.667Z,7.63
2019-05-17T11:09:25.729Z,7.63
2019-05-17T11:11:00.143Z,8.27
2019-05-17T11:12:35.143Z,7.27
2019-05-17T11:14:09.562Z,7.37
2019-05-17T11:15:44.490Z,7.40
2019-05-17T11:17:18.938Z,7.17
2019-05-17T11:18:53.863Z,6.97
2019-05-17T11:20:28.495Z,7.70
2019-05-17T11:22:04.306Z,8.40
2019-05-17T11:23:38.723Z,9.87
2019-05-17T11:25:14.402Z,8.97
2019-05-17T11:26:49.161Z,8.93
2019-05-17T11:28:25.002Z,9.23
2019-05-17T11:29:59.989Z,8.73
2019-05-17T11:31:35.778Z,9.13
2019-05-17T11:33:11.601Z,8.63
2019-05-17T11:34:46.951Z,8.77
2019-05-17T11:36:21.930Z,10.30
2019-05-17T11:37:57.255Z,9.40
2019-05-17T11:39:32.913Z,8.93
2019-05-17T11:41:20.689Z,8.93
2019-05-17T11:42:45.635Z,9.13
2019-05-17T11:44:20.629Z,8.20
2019-05-17T11:45:54.999Z,8.90
2019-05-17T11:47:29.996Z,8.17
2019-05-17T11:49:04.379Z,9.60
2019-05-17T11:50:39.560Z,8.80
2019-05-17T11:52:13.943Z,9.07
2019-05-17T11:53:49.129Z,9.30
2019-05-17T11:55:23.598Z,9.47
2019-05-17T11:56:58.798Z,8.60
2019-05-17T11:58:33.273Z,9.90
2019-05-17T12:00:09.433Z,9.50
2019-05-17T12:01:43.858Z,9.40
2019-05-17T12:03:18.782Z,9.27
2019-05-17T12:04:53.143Z,10.27
2019-05-17T12:06:28.091Z,9.57
2019-05-17T12:08:02.447Z,9.57
2019-05-17T12:09:37.916Z,10.27
2019-05-17T12:11:12.959Z,9.60
2019-05-17T12:12:47.914Z,9.47
2019-05-17T12:14:22.692Z,10.57
2019-05-17T12:15:58.511Z,10.83
2019-05-17T12:17:33.332Z,9.97
2019-05-17T12:19:08.922Z,9.40
2019-05-17T12:20:43.743Z,10.23
2019-05-17T12:22:19.790Z,9.63
2019-05-17T12:23:54.574Z,10.37
2019-05-17T12:25:30.179Z,10.17
2019-05-17T12:27:05.113Z,10.33
2019-05-17T12:28:40.175Z,11.17
2019-05-17T12:30:15.218Z,9.73
2019-05-17T12:31:50.795Z,13.17
2019-05-17T12:33:25.224Z,10.67
2019-05-17T12:35:00.865Z,10.20
2019-05-17T12:36:35.368Z,9.07
2019-05-17T12:38:10.540Z,9.40
2019-05-17T12:39:45.340Z,11.47
2019-05-17T12:41:20.430Z,9.97
2019-05-17T12:42:54.962Z,11.73
2019-05-17T12:44:30.293Z,10.10
2019-05-17T12:46:04.906Z,9.90
2019-05-17T12:47:40.240Z,11.13
2019-05-17T12:49:15.022Z,11.30
2019-05-17T12:50:50.298Z,11.17
2019-05-17T12:52:24.895Z,11.30
2019-05-17T12:54:00.436Z,11.20
2019-05-17T12:55:35.996Z,10.10
2019-05-17T12:57:11.384Z,10.90
2019-05-17T12:58:46.054Z,11.70
2019-05-17T13:00:22.203Z,10.53
2019-05-17T13:01:56.981Z,10.10
2019-05-17T13:03:31.903Z,11.87
2019-05-17T13:05:06.509Z,10.53
2019-05-17T13:06:41.626Z,10.97
2019-05-17T13:08:16.382Z,13.00
2019-05-17T13:09:51.457Z,11.73
2019-05-17T13:11:26.139Z,11.43
2019-05-17T13:13:01.982Z,10.63
2019-05-17T13:14:36.618Z,10.87
2019-05-17T13:16:17.929Z,10.63
2019-05-17T13:17:47.820Z,10.90
2019-05-17T13:19:25.308Z,10.93
2019-05-17T13:20:59.412Z,11.33
2019-05-17T13:22:34.999Z,10.73
2019-05-17T13:24:09.796Z,11.33
2019-05-17T13:25:45.737Z,11.23
2019-05-17T13:27:20.865Z,11.73
2019-05-17T13:28:56.148Z,12.13
2019-05-17T13:30:30.567Z,12.20
2019-05-17T13:32:05.634Z,15.63
2019-05-17T13:33:39.991Z,17.27
2019-05-17T13:35:15.533Z,11.70
2019-05-17T13:36:51.019Z,12.50
2019-05-17T13:38:26.166Z,11.97
2019-05-17T13:40:00.615Z,12.27
2019-05-17T13:41:35.566Z,11.17
2019-05-17T13:43:10.035Z,11.20
2019-05-17T13:44:45.295Z,11.43
2019-05-17T13:46:32.036Z,10.77
2019-05-17T13:47:56.941Z,12.10
2019-05-17T13:49:31.638Z,12.13
2019-05-17T13:51:09.578Z,11.87
2019-05-17T13:52:44.044Z,13.10
2019-05-17T13:54:19.039Z,11.60
2019-05-17T13:55:53.414Z,11.97
2019-05-17T13:57:28.692Z,12.40
2019-05-17T13:59:03.326Z,12.43
2019-05-17T14:00:38.687Z,11.90
2019-05-17T14:02:13.944Z,12.17
2019-05-17T14:03:48.930Z,11.77
2019-05-17T14:05:23.656Z,11.67
2019-05-17T14:06:58.681Z,12.50
2019-05-17T14:08:33.194Z,12.17
2019-05-17T14:10:24.537Z,12.80
2019-05-17T14:11:44.974Z,13.10
2019-05-17T14:13:20.235Z,12.20
2019-05-17T14:14:54.705Z,12.33
2019-05-17T14:16:33.911Z,12.77
2019-05-17T14:18:05.942Z,13.27
2019-05-17T14:19:40.870Z,13.47
2019-05-17T14:21:15.756Z,13.67
2019-05-17T14:22:50.836Z,13.27
2019-05-17T14:24:25.264Z,12.47
2019-05-17T14:26:00.269Z,13.43
2019-05-17T14:27:34.741Z,13.03
2019-05-17T14:29:09.707Z,13.40
2019-05-17T14:30:44.469Z,12.73
2019-05-17T14:32:20.044Z,12.47
2019-05-17T14:33:55.073Z,13.27
2019-05-17T14:35:30.927Z,13.40
2019-05-17T14:37:07.640Z,12.40
2019-05-17T14:38:43.356Z,15.03
2019-05-17T14:40:18.297Z,13.83
2019-05-17T14:41:53.274Z,15.67
2019-05-17T14:43:31.280Z,14.40
2019-05-17T14:45:04.432Z,14.10
2019-05-17T14:46:39.156Z,14.80
2019-05-17T14:48:14.375Z,15.23
2019-05-17T14:49:51.202Z,14.33
2019-05-17T14:51:25.772Z,14.67
2019-05-17T14:53:01.023Z,15.03
2019-05-17T14:54:36.058Z,16.23
2019-05-17T14:56:10.496Z,14.17
2019-05-17T14:57:45.939Z,17.07
2019-05-17T14:59:20.327Z,16.60
2019-05-17T15:00:55.306Z,15.73
2019-05-17T15:02:29.731Z,15.47
2019-05-17T15:04:04.776Z,16.03
2019-05-17T15:05:39.207Z,15.63
2019-05-17T15:07:14.165Z,18.63
2019-05-17T15:08:48.672Z,14.73
2019-05-17T15:10:23.711Z,13.70
2019-05-17T15:11:58.337Z,14.93
2019-05-17T15:13:33.277Z,15.80
2019-05-17T15:15:07.993Z,19.20
2019-05-17T15:16:42.984Z,12.10
2019-05-17T15:18:17.374Z,13.10
2019-05-17T15:19:52.402Z,13.10
2019-05-17T15:21:26.853Z,12.40
2019-05-17T15:23:01.913Z,13.00
2019-05-17T15:24:36.386Z,14.70
2019-05-17T15:26:11.310Z,13.53
2019-05-17T15:27:45.721Z,12.40
2019-05-17T15:29:20.702Z,13.50
2019-05-17T15:30:55.174Z,14.33
2019-05-17T15:32:30.346Z,11.90
2019-05-17T15:34:05.143Z,14.27
2019-05-17T15:35:40.072Z,15.27
2019-05-17T15:37:14.775Z,13.60
2019-05-17T15:38:50.042Z,14.60
2019-05-17T15:40:24.390Z,15.70
2019-05-17T15:41:59.321Z,13.67
2019-05-17T15:43:33.807Z,14.57
2019-05-17T15:45:09.733Z,14.03
2019-05-17T15:46:44.301Z,13.90
2019-05-17T15:48:19.304Z,14.17
2019-05-17T15:49:53.667Z,13.97
2019-05-17T15:51:28.608Z,12.47
2019-05-17T15:53:03.033Z,11.70
2019-05-17T15:54:38.204Z,10.73
2019-05-17T15:56:12.642Z,10.40
2019-05-17T15:57:47.871Z,10.83
2019-05-17T15:59:22.276Z,9.00
2019-05-17T16:00:57.182Z,9.97
2019-05-17T16:02:31.547Z,10.20
2019-05-17T16:04:06.470Z,9.77
2019-05-17T16:05:41.251Z,7.60
2019-05-17T16:07:16.233Z,9.53
2019-05-17T16:08:51.001Z,10.07
2019-05-17T16:10:25.988Z,9.90
2019-05-17T16:12:00.649Z,8.63
2019-05-17T16:13:35.581Z,9.40
2019-05-17T16:15:10.555Z,10.40
2019-05-17T16:16:45.823Z,10.83
2019-05-17T16:18:20.523Z,7.63
2019-05-17T16:19:55.778Z,9.87
2019-05-17T16:21:30.151Z,8.23
2019-05-17T16:23:05.219Z,7.27
2019-05-17T16:24:39.603Z,7.70
2019-05-17T16:26:14.654Z,9.57
2019-05-17T16:27:49.113Z,8.37
2019-05-17T16:29:24.030Z,8.93
2019-05-17T16:30:58.458Z,8.23
2019-05-17T16:32:33.659Z,10.57
2019-05-17T16:34:08.014Z,7.73
2019-05-17T16:35:42.930Z,7.10
2019-05-17T16:37:17.287Z,6.73
2019-05-17T16:38:52.224Z,6.50
2019-05-17T16:40:27.086Z,7.67
2019-05-17T16:42:02.209Z,5.83
2019-05-17T16:43:36.621Z,7.13
2019-05-17T16:45:13.780Z,6.60
2019-05-17T16:46:48.215Z,6.93
2019-05-17T16:48:23.394Z,6.37
2019-05-17T16:49:57.958Z,6.67
2019-05-17T16:51:32.873Z,5.53
2019-05-17T16:53:07.413Z,5.63
2019-05-17T16:54:42.597Z,5.60
2019-05-17T16:56:17.078Z,5.87
2019-05-17T16:57:52.090Z,4.30
2019-05-17T16:59:26.705Z,5.37
2019-05-17T17:01:03.579Z,5.30
2019-05-17T17:02:38.525Z,4.93
2019-05-17T17:04:13.723Z,5.03
2019-05-17T17:05:48.450Z,4.70
2019-05-17T17:07:23.435Z,5.23
2019-05-17T17:08:57.914Z,4.27
2019-05-17T17:10:33.724Z,5.47
2019-05-17T17:12:08.558Z,4.60
2019-05-17T17:13:43.667Z,5.70
2019-05-17T17:15:18.444Z,5.62
2019-05-17T17:16:53.654Z,5.30
2019-05-17T17:18:28.507Z,4.50
2019-05-17T17:20:03.447Z,5.43
2019-05-17T17:21:37.824Z,6.53
2019-05-17T17:23:13.004Z,5.67
2019-05-17T17:24:47.621Z,5.47
2019-05-17T17:26:22.703Z,4.70
2019-05-17T17:27:57.128Z,5.80
2019-05-17T17:29:32.422Z,5.10
2019-05-17T17:31:11.224Z,5.60
2019-05-17T17:32:46.555Z,4.97
2019-05-17T17:34:21.309Z,5.10
2019-05-17T17:35:57.111Z,5.10
2019-05-17T17:37:32.228Z,5.20
2019-05-17T17:39:08.052Z,5.10
2019-05-17T17:40:43.057Z,5.60
2019-05-17T17:42:18.829Z,5.57
2019-05-17T17:43:58.519Z,5.93
2019-05-17T17:45:31.772Z,5.67
2019-05-17T17:47:07.092Z,7.97
2019-05-17T17:48:45.763Z,5.67
2019-05-17T17:50:19.792Z,7.13
2019-05-17T17:51:55.570Z,6.70
2019-05-17T17:53:30.782Z,6.70
2019-05-17T17:55:06.403Z,5.90
2019-05-17T17:56:41.416Z,6.97
2019-05-17T17:58:17.247Z,7.60
2019-05-17T17:59:52.208Z,5.77
2019-05-17T18:01:28.321Z,6.07
2019-05-17T18:03:03.282Z,6.37
2019-05-17T18:04:38.635Z,5.97
2019-05-17T18:06:13.604Z,5.67
2019-05-17T18:07:48.965Z,7.63
2019-05-17T18:09:24.341Z,6.27
2019-05-17T18:10:59.685Z,5.90
2019-05-17T18:12:35.186Z,6.30
2019-05-17T18:14:13.378Z,5.23
2019-05-17T18:15:50.352Z,7.23
2019-05-17T18:17:25.479Z,7.33
2019-05-17T18:19:00.687Z,6.87
2019-05-17T18:20:36.875Z,6.37
2019-05-17T18:22:11.871Z,6.43
2019-05-17T18:23:46.827Z,7.10
2019-05-17T18:25:21.657Z,7.73
2019-05-17T18:26:57.186Z,6.60
2019-05-17T18:28:32.642Z,6.77
2019-05-17T18:30:08.498Z,6.80
2019-05-17T18:31:43.754Z,7.27
2019-05-17T18:33:19.288Z,6.90
2019-05-17T18:34:54.412Z,7.27
2019-05-17T18:36:30.470Z,6.00
2019-05-17T18:38:06.387Z,6.47
2019-05-17T18:39:41.932Z,7.80
2019-05-17T18:41:17.204Z,7.17
2019-05-17T18:42:52.325Z,7.83
2019-05-17T18:44:28.106Z,7.10
2019-05-17T18:46:03.765Z,7.30
2019-05-17T18:47:38.161Z,7.43
2019-05-17T18:49:13.958Z,6.47
2019-05-17T18:50:48.930Z,6.67
2019-05-17T18:52:24.393Z,7.63
2019-05-17T18:53:59.736Z,6.83
2019-05-17T18:55:36.541Z,7.73
2019-05-17T18:57:11.895Z,8.20
2019-05-17T18:58:47.155Z,9.10
2019-05-17T19:00:22.088Z,8.87
2019-05-17T19:01:57.808Z,7.10
2019-05-17T19:03:32.563Z,7.70
2019-05-17T19:05:09.493Z,9.30
2019-05-17T19:06:43.922Z,7.57
2019-05-17T19:08:18.917Z,7.53
2019-05-17T19:09:53.362Z,8.53
2019-05-17T19:11:28.300Z,8.17
2019-05-17T19:13:02.770Z,8.63
2019-05-17T19:14:42.829Z,7.70
2019-05-17T19:16:14.129Z,7.33
2019-05-17T19:17:49.133Z,8.33
2019-05-17T19:19:23.527Z,7.03
2019-05-17T19:20:58.459Z,7.93
2019-05-17T19:22:32.826Z,7.73
2019-05-17T19:24:08.017Z,8.17
2019-05-17T19:25:42.752Z,8.27
2019-05-17T19:27:18.097Z,8.87
2019-05-17T19:28:52.528Z,11.93
2019-05-17T19:30:27.557Z,8.13
2019-05-17T19:32:01.952Z,8.73
2019-05-17T19:33:37.274Z,9.97
2019-05-17T19:35:12.209Z,8.70
2019-05-17T19:36:47.128Z,10.10
2019-05-17T19:38:21.895Z,9.80
2019-05-17T19:39:57.071Z,8.13
2019-05-17T19:41:31.516Z,8.13
2019-05-17T19:43:06.432Z,9.13
2019-05-17T19:44:40.795Z,8.57
2019-05-17T19:46:15.750Z,8.90
2019-05-17T19:47:50.297Z,9.40
2019-05-17T19:49:25.350Z,9.40
2019-05-17T19:50:59.994Z,8.23
2019-05-17T19:52:35.154Z,9.63
2019-05-17T19:54:09.894Z,10.37
2019-05-17T19:55:44.863Z,9.30
2019-05-17T19:57:19.608Z,10.33
2019-05-17T20:01:40.929Z,10.37
2019-05-17T20:03:15.874Z,10.37
2019-05-17T20:04:50.599Z,10.17
2019-05-17T20:06:25.875Z,10.47
2019-05-17T20:08:00.535Z,11.50
2019-05-17T20:09:35.569Z,10.07
2019-05-17T20:11:10.290Z,9.93
2019-05-17T20:12:45.259Z,9.60
2019-05-17T20:14:20.031Z,9.57
2019-05-17T20:15:54.953Z,10.63
2019-05-17T20:17:29.339Z,10.00
2019-05-17T20:19:04.340Z,10.60
2019-05-17T20:20:38.722Z,11.83
2019-05-17T20:22:13.662Z,9.73
2019-05-17T20:23:48.360Z,10.77
2019-05-17T20:25:23.609Z,12.10
2019-05-17T20:26:58.019Z,11.77
2019-05-17T20:28:33.236Z,11.03
2019-05-17T20:30:08.374Z,9.43
2019-05-17T20:31:43.368Z,9.27
2019-05-17T20:33:17.772Z,10.90
2019-05-17T20:34:53.154Z,8.73
2019-05-17T20:36:58.957Z,9.13
2019-05-17T20:38:34.229Z,11.60
2019-05-17T20:40:09.939Z,12.60
2019-05-17T20:41:45.207Z,12.30
2019-05-17T20:43:19.598Z,11.27